Time;durP1;ratioP1;P1;durP2;ratioP2;P2;SDS_P1;SDS_P2;PMS_P1;PMS_P2;Temp;Humidity;BMP_temperature;BMP_pressure;BME280_temperature;BME280_humidity;BME280_pressure;Samples;Min_cycle;Max_cycle;Signal;HPM_P1;HPM_P2
2022/01/26 00:07:56;;;;;;;26.80;15.60;;;;;;;-7.76;72.59;98318.42;110169;1247;67672;-67
2022/01/26 00:10:26;;;;;;;27.20;16.10;;;;;;;-7.75;72.36;98314.23;110079;1247;69528;-66
2022/01/26 00:12:55;;;;;;;31.40;17.20;;;;;;;-7.73;72.52;98311.69;110252;1247;59707;-67
2022/01/26 00:15:25;;;;;;;28.40;16.50;;;;;;;-7.74;72.54;98306.60;110238;1247;59693;-66
2022/01/26 00:17:56;;;;;;;59.10;33.60;;;;;;;-7.73;72.65;98303.06;110248;1247;70648;-68
2022/01/26 00:20:38;;;;;;;61.30;33.80;;;;;;;-7.73;73.50;98300.86;110379;1246;68404;-68
2022/01/26 00:23:46;;;;;;;36.40;20.70;;;;;;;-7.73;73.15;98304.23;110386;1247;68946;-66
2022/01/26 00:26:23;;;;;;;37.50;18.20;;;;;;;-7.71;72.55;98299.70;110244;1247;59741;-69
2022/01/26 00:29:13;;;;;;;54.00;30.90;;;;;;;-7.69;72.62;98301.60;110247;1247;59669;-67
2022/01/26 00:40:41;;;;;;;66.00;38.00;;;;;;;-7.76;73.68;98295.23;110113;1247;59737;-67
2022/01/26 00:43:19;;;;;;;42.80;23.00;;;;;;;-7.83;74.32;98294.46;110366;1246;59676;-66
2022/01/26 00:45:55;;;;;;;60.00;34.10;;;;;;;-7.88;74.36;98297.26;110367;1247;70800;-66
2022/01/26 00:48:26;;;;;;;67.80;35.90;;;;;;;-7.91;74.38;98296.55;110485;1246;67620;-65
2022/01/26 00:50:59;;;;;;;52.60;30.80;;;;;;;-7.90;74.37;98297.92;110279;1247;68810;-65
2022/01/26 00:53:37;;;;;;;55.40;34.50;;;;;;;-7.87;74.68;98294.24;110240;1247;59745;-67
2022/01/26 00:56:06;;;;;;;33.10;17.60;;;;;;;-7.86;75.09;98297.98;110278;1247;59647;-68
2022/01/26 00:58:36;;;;;;;61.20;34.10;;;;;;;-7.82;74.86;98298.19;110190;1247;71682;-67
2022/01/26 01:01:05;;;;;;;34.20;17.90;;;;;;;-7.82;75.19;98295.82;110244;1247;68643;-67
2022/01/26 01:03:42;;;;;;;63.40;35.00;;;;;;;-7.81;74.77;98292.81;110251;1247;69413;-67
2022/01/26 01:06:22;;;;;;;47.00;25.80;;;;;;;-7.79;75.13;98290.97;110180;1247;59704;-67
2022/01/26 01:08:52;;;;;;;42.90;23.70;;;;;;;-7.78;75.41;98285.05;110425;1246;59681;-67
2022/01/26 01:11:21;;;;;;;;;;;;;;;-7.77;75.70;98285.73;110263;1247;71597;-67
2022/01/26 01:13:52;;;;;;;28.30;16.40;;;;;;;-7.77;75.56;98285.57;110192;1246;68564;-69
2022/01/26 01:16:23;;;;;;;30.60;16.90;;;;;;;-7.75;75.21;98284.42;110218;1247;68578;-67
2022/01/26 01:19:06;;;;;;;25.60;14.30;;;;;;;-7.74;75.44;98278.16;110260;1247;59696;-67
2022/01/26 01:22:47;;;;;;;27.50;20.30;;;;;;;-7.73;76.05;98280.38;110255;1247;59592;-67
2022/01/26 01:30:11;;;;;;;51.30;28.30;;;;;;;-7.67;76.53;98272.50;110231;1247;69396;-67
2022/01/26 01:32:53;;;;;;;30.80;18.00;;;;;;;-7.65;76.73;98271.85;110228;1247;59762;-66
2022/01/26 01:35:24;;;;;;;63.50;34.50;;;;;;;-7.62;76.26;98270.19;110075;1247;60041;-67
2022/01/26 01:37:54;;;;;;;73.70;40.00;;;;;;;-7.63;76.07;98264.94;110084;1247;71622;-66
2022/01/26 01:40:23;;;;;;;70.60;39.50;;;;;;;-7.66;76.96;98269.98;110107;1247;68596;-68
2022/01/26 01:42:54;;;;;;;72.90;38.80;;;;;;;-7.69;77.15;98265.54;110283;1247;69462;-67
2022/01/26 01:45:53;;;;;;;69.20;35.70;;;;;;;-7.71;77.01;98261.97;110122;1247;59729;-66
2022/01/26 01:48:28;;;;;;;56.70;29.20;;;;;;;-7.70;77.99;98261.64;109487;1254;59711;-66
2022/01/26 01:51:06;;;;;;;29.80;17.00;;;;;;;-7.67;77.69;98259.97;109541;1254;71846;-68
2022/01/26 01:53:40;;;;;;;41.80;22.70;;;;;;;-7.64;76.65;98252.90;109524;1256;68743;-67
2022/01/26 01:56:17;;;;;;;64.60;34.60;;;;;;;-7.62;76.34;98256.66;109412;1256;69414;-67
2022/01/26 01:58:46;;;;;;;42.70;24.70;;;;;;;-7.60;77.28;98256.17;109482;1256;59751;-67
2022/01/26 02:01:16;;;;;;;42.70;24.20;;;;;;;-7.58;77.17;98255.02;109703;1254;59677;-66
2022/01/26 02:03:46;;;;;;;53.70;31.20;;;;;;;-7.55;77.53;98253.70;109538;1255;70632;-66
2022/01/26 02:06:17;;;;;;;69.00;37.90;;;;;;;-7.55;77.12;98248.27;109608;1254;67467;-67
2022/01/26 02:08:46;;;;;;;65.00;36.80;;;;;;;-7.56;76.78;98246.74;109557;1255;68584;-68
2022/01/26 02:11:16;;;;;;;47.50;26.30;;;;;;;-7.57;77.06;98249.77;109588;1254;59719;-67
2022/01/26 02:14:00;;;;;;;35.00;22.30;;;;;;;-7.57;76.98;98252.50;109508;1256;59682;-66
2022/01/26 02:22:02;;;;;;;75.40;39.30;;;;;;;-7.56;77.62;98246.91;109501;1254;69228;-66
2022/01/26 02:58:05;;;;;;;47.30;25.70;;;;;;;-7.68;78.08;98241.67;110371;1247;71463;-67
2022/01/26 03:03:18;;;;;;;;;;;;;;;-7.61;77.59;98240.41;110184;1247;68627;-66
2022/01/26 03:05:58;;;;;;;41.20;21.00;;;;;;;-7.58;77.09;98238.94;110215;1247;59706;-68
2022/01/26 03:08:34;;;;;;;55.60;31.40;;;;;;;-7.57;76.93;98239.11;110233;1247;59690;-66
2022/01/26 03:11:10;;;;;;;53.10;30.60;;;;;;;-7.59;77.35;98237.73;110202;1248;71392;-68
2022/01/26 03:13:47;;;;;;;34.40;20.00;;;;;;;-7.60;76.93;98230.77;110261;1246;68423;-67
2022/01/26 03:16:29;;;;;;;37.00;22.40;;;;;;;-7.58;76.21;98236.71;110112;1247;68477;-66
2022/01/26 03:21:45;;;;;;;39.30;20.40;;;;;;;-7.60;77.14;98232.30;110086;1247;59731;-66
2022/01/26 03:30:02;;;;;;;39.60;22.90;;;;;;;-7.66;77.79;98230.54;110215;1247;67603;-67
2022/01/26 03:35:49;;;;;;;46.40;23.90;;;;;;;-7.70;77.64;98221.18;109893;1247;59836;-68
2022/01/26 03:41:22;;;;;;;31.70;17.80;;;;;;;-7.71;78.23;98222.18;110179;1247;68558;-67
2022/01/26 03:43:51;;;;;;;35.60;19.90;;;;;;;-7.69;77.68;98223.39;110257;1247;68615;-67
2022/01/26 03:46:21;;;;;;;27.90;17.20;;;;;;;-7.66;78.01;98221.58;110283;1246;59679;-66
2022/01/26 03:48:52;;;;;;;27.00;14.70;;;;;;;-7.62;78.28;98224.49;110215;1246;59741;-66
2022/01/26 03:51:22;;;;;;;35.80;21.80;;;;;;;-7.59;77.20;98220.80;110280;1247;71429;-66
2022/01/26 03:53:52;;;;;;;67.00;32.60;;;;;;;-7.58;77.12;98222.84;110044;1248;67691;-66
2022/01/26 03:56:23;;;;;;;;;;;;;;;-7.59;77.46;98218.93;110306;1246;68718;-66
2022/01/26 03:58:52;;;;;;;33.90;18.50;;;;;;;-7.56;77.67;98221.69;110233;1247;59748;-68
2022/01/26 04:01:23;;;;;;;;;;;;;;;-7.55;78.24;98224.41;110441;1246;59748;-69
2022/01/26 04:03:53;;;;;;;40.20;19.50;;;;;;;-7.54;77.83;98225.59;110233;1247;71351;-67
2022/01/26 04:06:24;;;;;;;73.60;37.20;;;;;;;-7.53;77.47;98227.13;110061;1248;68557;-67
2022/01/26 04:08:54;;;;;;;50.70;29.10;;;;;;;-7.57;76.97;98223.02;110142;1246;68725;-65
2022/01/26 04:11:35;;;;;;;32.90;16.50;;;;;;;-7.61;78.05;98226.38;110217;1247;59731;-67
2022/01/26 04:14:12;;;;;;;38.00;19.00;;;;;;;-7.58;78.47;98222.83;110231;1247;59734;-66
2022/01/26 04:16:43;;;;;;;35.00;18.60;;;;;;;-7.56;78.06;98222.54;110234;1245;71490;-66
2022/01/26 04:19:12;;;;;;;68.20;37.10;;;;;;;-7.53;78.25;98222.58;110245;1246;68918;-67
2022/01/26 04:21:56;;;;;;;73.30;37.50;;;;;;;-7.52;78.36;98221.06;109912;1247;68930;-66
2022/01/26 04:24:36;;;;;;;59.50;32.80;;;;;;;-7.52;78.43;98226.14;110215;1247;59728;-67
2022/01/26 04:27:56;;;;;;;51.80;29.10;;;;;;;-7.51;78.61;98226.15;110462;1247;59680;-65
2022/01/26 04:29:56;;;;;;;42.30;27.10;;;;;;;-7.49;78.39;98226.84;110004;1247;70665;-66
2022/01/26 04:32:26;;;;;;;76.10;37.80;;;;;;;-7.47;78.56;98227.05;110127;1247;68429;-67
2022/01/26 04:34:57;;;;;;;81.50;41.90;;;;;;;-7.44;78.57;98222.48;110072;1247;68608;-66
2022/01/26 04:37:48;;;;;;;;;;;;;;;-7.46;78.99;98222.98;110062;1247;59675;-66
2022/01/26 04:40:19;;;;;;;72.00;35.20;;;;;;;-7.52;79.18;98225.13;110189;1247;59681;-68
2022/01/26 04:45:18;;;;;;;49.90;26.50;;;;;;;-7.50;78.50;98225.64;110234;1247;66861;-66
2022/01/26 04:47:48;;;;;;;90.90;43.10;;;;;;;-7.48;78.45;98222.46;110141;1247;69414;-67
2022/01/26 04:50:17;;;;;;;85.80;43.70;;;;;;;-7.48;78.52;98221.11;110146;1247;60157;-67
2022/01/26 04:52:48;;;;;;;74.00;37.70;;;;;;;-7.50;79.09;98218.36;110139;1247;59602;-67
2022/01/26 04:55:17;;;;;;;;;;;;;;;-7.51;79.42;98221.91;110246;1247;71839;-67
2022/01/26 04:57:46;;;;;;;61.20;31.40;;;;;;;-7.53;79.99;98220.70;110064;1247;68427;-66
2022/01/26 05:00:17;;;;;;;65.40;34.10;;;;;;;-7.54;79.86;98221.04;110078;1247;68789;-67
2022/01/26 05:02:47;;;;;;;78.90;44.00;;;;;;;-7.54;79.94;98218.30;110061;1246;59651;-67
2022/01/26 05:05:17;;;;;;;88.20;43.50;;;;;;;-7.59;80.58;98217.08;110189;1247;59745;-67
2022/01/26 05:07:46;;;;;;;89.20;43.40;;;;;;;-7.62;80.70;98216.52;109866;1247;72201;-68
2022/01/26 05:10:16;;;;;;;45.50;23.70;;;;;;;-7.61;80.50;98218.59;110150;1247;67838;-67
2022/01/26 05:12:46;;;;;;;40.60;22.30;;;;;;;-7.57;79.85;98222.17;110125;1247;70026;-69
2022/01/26 05:15:17;;;;;;;128.00;59.00;;;;;;;-7.53;79.66;98223.59;110379;1247;60056;-67
2022/01/26 05:17:46;;;;;;;55.00;28.80;;;;;;;-7.50;80.01;98223.45;110502;1246;59676;-67
2022/01/26 05:20:16;;;;;;;128.70;59.30;;;;;;;-7.47;80.12;98222.30;110124;1247;71541;-68
2022/01/26 05:22:47;;;;;;;86.30;45.20;;;;;;;-7.45;80.18;98220.79;110059;1247;68709;-67
2022/01/26 05:25:16;;;;;;;74.20;39.00;;;;;;;-7.42;79.68;98216.59;109841;1248;70170;-68
2022/01/26 05:27:46;;;;;;;;;;;;;;;-7.39;79.47;98214.77;110085;1247;59674;-66
2022/01/26 05:30:16;;;;;;;102.10;48.70;;;;;;;-7.35;79.27;98213.11;110101;1247;59675;-67
2022/01/26 05:32:46;;;;;;;46.20;22.00;;;;;;;-7.32;79.20;98215.85;110103;1246;70806;-67
2022/01/26 05:35:15;;;;;;;63.90;31.00;;;;;;;-7.28;78.64;98211.66;110077;1247;68755;-66
2022/01/26 05:37:45;;;;;;;55.00;26.40;;;;;;;-7.26;78.60;98207.10;110316;1247;68695;-65
2022/01/26 05:40:15;;;;;;;50.50;27.20;;;;;;;-7.25;78.66;98206.28;109824;1248;59687;-66
2022/01/26 05:42:45;;;;;;;38.50;21.50;;;;;;;-7.22;78.43;98204.45;110406;1247;59602;-66
2022/01/26 05:45:34;;;;;;;54.20;30.00;;;;;;;-7.19;78.30;98208.38;110350;1247;71781;-68
2022/01/26 05:48:09;;;;;;;61.60;34.70;;;;;;;-7.16;78.25;98208.06;110303;1246;68789;-65
2022/01/26 05:51:03;;;;;;;56.30;30.50;;;;;;;-7.14;78.38;98207.23;109966;1247;69603;-67
2022/01/26 05:53:34;;;;;;;88.50;40.70;;;;;;;-7.12;78.94;98207.77;110183;1247;59681;-67
2022/01/26 05:56:03;;;;;;;;;;;;;;;-7.10;78.88;98207.61;110274;1247;59750;-66
2022/01/26 05:58:32;;;;;;;51.20;30.00;;;;;;;-7.12;78.50;98206.91;110085;1247;71637;-67
2022/01/26 06:01:03;;;;;;;50.60;27.00;;;;;;;-7.13;78.35;98207.40;110112;1247;67941;-69
2022/01/26 06:03:32;;;;;;;44.50;23.90;;;;;;;-7.12;77.88;98206.91;110290;1246;68015;-68
2022/01/26 06:06:01;;;;;;;65.40;35.80;;;;;;;-7.11;77.76;98204.55;110174;1247;59741;-67
2022/01/26 06:08:31;;;;;;;50.30;29.80;;;;;;;-7.10;77.83;98204.56;110050;1247;60047;-68
2022/01/26 06:11:01;;;;;;;57.90;33.50;;;;;;;-7.07;77.83;98206.62;110226;1247;70692;-67
2022/01/26 06:13:31;;;;;;;49.40;26.10;;;;;;;-7.05;77.46;98210.38;110101;1247;68617;-65
2022/01/26 06:16:01;;;;;;;63.50;33.80;;;;;;;-7.03;77.25;98211.74;110096;1247;69985;-67
2022/01/26 06:18:31;;;;;;;71.50;35.20;;;;;;;-7.01;77.11;98209.23;110107;1247;60137;-65
2022/01/26 06:21:00;;;;;;;51.30;28.80;;;;;;;-6.99;77.36;98208.89;109938;1248;59747;-68
2022/01/26 06:23:29;;;;;;;47.40;26.60;;;;;;;-6.97;77.34;98208.42;110231;1248;71609;-67
2022/01/26 06:25:58;;;;;;;40.20;20.90;;;;;;;-6.93;77.18;98203.70;110089;1248;67970;-67
2022/01/26 06:28:28;;;;;;;38.20;24.10;;;;;;;-6.90;77.34;98207.29;110046;1247;69520;-66
2022/01/26 06:31:00;;;;;;;46.60;27.20;;;;;;;-6.88;77.10;98209.70;110066;1247;59680;-67
2022/01/26 06:33:33;;;;;;;45.20;26.40;;;;;;;-6.86;76.95;98206.14;109809;1250;59673;-65
2022/01/26 06:36:03;;;;;;;69.70;36.00;;;;;;;-6.84;76.68;98206.33;110057;1247;71511;-66
2022/01/26 06:38:32;;;;;;;58.50;32.50;;;;;;;-6.85;76.73;98205.64;110056;1247;67738;-68
2022/01/26 06:41:01;;;;;;;70.10;35.60;;;;;;;-6.84;76.68;98208.54;110222;1247;69341;-66
2022/01/26 06:43:32;;;;;;;50.30;28.40;;;;;;;-6.83;76.71;98208.39;110166;1247;59706;-65
2022/01/26 06:46:06;;;;;;;77.80;43.00;;;;;;;-6.80;77.02;98202.96;110213;1247;59655;-67
2022/01/26 06:51:23;;;;;;;54.00;29.90;;;;;;;-6.71;76.93;98203.21;110320;1247;68786;-66
2022/01/26 06:53:52;;;;;;;75.10;40.70;;;;;;;-6.67;76.82;98204.77;110154;1247;69448;-68
2022/01/26 06:56:21;;;;;;;46.40;27.50;;;;;;;-6.63;76.95;98211.59;110315;1247;59678;-66
2022/01/26 06:58:50;;;;;;;94.90;46.40;;;;;;;-6.60;76.90;98210.27;110428;1247;59761;-66
2022/01/26 07:01:20;;;;;;;57.00;33.00;;;;;;;-6.57;76.66;98214.67;109670;1247;517316;-68
2022/01/26 07:03:49;;;;;;;55.90;32.30;;;;;;;-6.53;76.75;98215.73;110308;1247;68391;-69
2022/01/26 07:06:18;;;;;;;78.40;43.30;;;;;;;-6.48;76.58;98218.98;110390;1247;69654;-69
2022/01/26 07:08:48;;;;;;;67.10;37.40;;;;;;;-6.45;76.53;98219.19;110265;1247;59646;-67
2022/01/26 07:11:17;;;;;;;42.30;23.30;;;;;;;-6.42;76.66;98214.12;110229;1247;59647;-67
2022/01/26 07:13:46;;;;;;;42.40;26.00;;;;;;;-6.37;76.57;98209.58;110196;1247;71637;-67
2022/01/26 07:21:50;;;;;;;115.80;57.30;;;;;;;-6.29;76.45;98209.80;110203;1247;59747;-66
2022/01/26 07:24:18;;;;;;;123.60;58.40;;;;;;;-6.31;76.91;98207.92;110086;1247;59723;-66
2022/01/26 07:26:52;;;;;;;108.60;54.40;;;;;;;-6.29;77.10;98207.59;110070;1247;71821;-67
2022/01/26 07:29:23;;;;;;;100.10;51.50;;;;;;;-6.30;77.11;98207.44;109978;1250;69024;-66
2022/01/26 07:31:52;;;;;;;75.30;37.70;;;;;;;-6.32;77.22;98209.28;110087;1247;70101;-68
2022/01/26 07:34:23;;;;;;;53.30;30.90;;;;;;;-6.30;77.10;98212.85;110169;1247;59762;-66
2022/01/26 07:36:58;;;;;;;71.10;40.50;;;;;;;-6.25;77.02;98214.77;110100;1247;60129;-68
2022/01/26 07:39:42;;;;;;;52.40;29.10;;;;;;;-6.18;77.10;98212.92;110183;1247;71617;-67
2022/01/26 07:42:12;;;;;;;49.20;26.80;;;;;;;-6.12;76.59;98212.29;110120;1249;69167;-67
2022/01/26 07:44:45;;;;;;;82.40;43.50;;;;;;;-6.09;76.93;98211.63;110173;1247;69120;-67
2022/01/26 07:47:14;;;;;;;54.60;30.60;;;;;;;-6.10;76.80;98215.69;110207;1245;59744;-68
2022/01/26 07:49:43;;;;;;;55.70;29.00;;;;;;;-6.10;76.92;98213.64;110299;1247;59698;-67
2022/01/26 07:52:16;;;;;;;86.70;44.60;;;;;;;-6.07;76.58;98209.59;110053;1247;71196;-68
2022/01/26 07:54:46;;;;;;;88.40;45.30;;;;;;;-6.08;77.34;98210.27;110225;1247;66844;-66
2022/01/26 07:57:14;;;;;;;62.40;32.40;;;;;;;-6.14;77.41;98208.36;110217;1247;69257;-68
2022/01/26 07:59:43;;;;;;;54.30;27.90;;;;;;;-6.18;77.23;98210.90;110026;1247;59834;-66
2022/01/26 08:02:13;;;;;;;51.80;28.30;;;;;;;-6.14;77.00;98211.93;110141;1247;59689;-65
2022/01/26 08:04:43;;;;;;;61.10;32.70;;;;;;;-6.11;77.38;98214.67;110113;1248;70570;-68
2022/01/26 08:07:13;;;;;;;89.50;43.70;;;;;;;-6.10;77.96;98214.33;110250;1248;67831;-66
2022/01/26 08:09:44;;;;;;;86.30;44.20;;;;;;;-6.11;78.41;98213.14;110179;1246;69199;-66
2022/01/26 08:12:15;;;;;;;94.20;45.50;;;;;;;-6.16;78.47;98213.45;110227;1248;59655;-65
2022/01/26 08:14:45;;;;;;;89.40;43.60;;;;;;;-6.19;78.71;98213.61;110188;1247;59681;-67
2022/01/26 08:17:16;;;;;;;56.80;30.80;;;;;;;-6.16;78.43;98220.23;110425;1247;71464;-68
2022/01/26 08:19:46;;;;;;;58.80;28.00;;;;;;;-6.09;78.35;98223.67;110381;1247;69192;-66
2022/01/26 08:22:19;;;;;;;83.20;40.00;;;;;;;-5.99;79.11;98228.48;110331;1246;68500;-67
2022/01/26 08:24:49;;;;;;;85.30;41.00;;;;;;;-5.94;78.86;98225.45;110348;1247;59736;-68
2022/01/26 08:27:20;;;;;;;;;;;;;;;-5.90;78.63;98227.16;110353;1247;59694;-68
2022/01/26 08:29:56;;;;;;;82.40;39.00;;;;;;;-5.90;78.94;98227.33;110333;1247;70592;-68
2022/01/26 08:32:27;;;;;;;90.60;44.80;;;;;;;-5.87;79.05;98226.14;110362;1247;68560;-68
2022/01/26 08:34:56;;;;;;;82.00;41.00;;;;;;;-5.86;79.10;98226.30;110132;1248;68737;-68
2022/01/26 08:37:25;;;;;;;56.20;28.70;;;;;;;-5.86;79.19;98225.30;110239;1247;59706;-66
2022/01/26 08:39:54;;;;;;;51.10;24.70;;;;;;;-5.81;78.77;98225.66;110325;1247;59690;-67
2022/01/26 08:42:23;;;;;;;62.70;29.10;;;;;;;-5.73;78.88;98234.02;110437;1247;71638;-67
2022/01/26 08:44:52;;;;;;;62.70;30.00;;;;;;;-5.67;78.96;98234.56;110240;1247;69160;-67
2022/01/26 08:47:22;;;;;;;63.00;29.50;;;;;;;-5.60;78.96;98235.78;110335;1247;69244;-66
2022/01/26 08:49:51;;;;;;;50.70;24.80;;;;;;;-5.57;78.53;98233.42;110458;1247;59703;-66
2022/01/26 08:52:20;;;;;;;53.90;25.70;;;;;;;-5.53;78.25;98230.73;110346;1247;59808;-67
2022/01/26 08:54:49;;;;;;;62.80;29.60;;;;;;;-5.47;78.19;98231.08;110379;1247;71535;-67
2022/01/26 08:57:18;;;;;;;84.30;39.80;;;;;;;-5.45;78.02;98231.27;110216;1247;67743;-65
2022/01/26 08:59:48;;;;;;;91.40;40.40;;;;;;;-5.50;78.45;98230.39;110148;1247;69996;-66
2022/01/26 09:02:17;;;;;;;71.00;32.50;;;;;;;-5.59;78.58;98224.73;110116;1247;59741;-67
2022/01/26 09:04:47;;;;;;;61.50;31.40;;;;;;;-5.61;78.50;98232.39;110370;1247;59645;-66
2022/01/26 09:07:16;;;;;;;57.00;26.80;;;;;;;-5.57;78.40;98226.63;110170;1247;71537;-68
2022/01/26 09:09:46;;;;;;;72.20;33.90;;;;;;;-5.49;78.40;98226.15;110290;1247;69176;-68
2022/01/26 09:12:18;;;;;;;83.20;36.70;;;;;;;-5.45;78.10;98228.55;110341;1247;69452;-67
2022/01/26 09:14:47;;;;;;;60.20;29.20;;;;;;;-5.40;77.93;98222.10;110326;1247;59666;-66
2022/01/26 09:17:16;;;;;;;72.20;33.40;;;;;;;-5.34;77.78;98225.02;110126;1247;59690;-67
2022/01/26 09:19:47;;;;;;;94.90;43.00;;;;;;;-5.26;77.71;98225.71;110398;1246;71632;-68
2022/01/26 09:22:18;;;;;;;66.20;32.20;;;;;;;-5.21;77.84;98227.77;110396;1247;69167;-68
2022/01/26 09:24:47;;;;;;;62.90;28.70;;;;;;;-5.14;77.57;98230.34;110257;1247;70026;-66
2022/01/26 09:27:17;;;;;;;72.50;33.20;;;;;;;-5.08;77.39;98230.52;110187;1247;59702;-67
2022/01/26 09:29:47;;;;;;;75.80;35.80;;;;;;;-5.05;77.34;98230.70;110345;1247;59666;-65
2022/01/26 09:32:16;;;;;;;101.60;47.20;;;;;;;-5.04;76.91;98229.84;110279;1247;71479;-66
2022/01/26 09:34:46;;;;;;;72.40;32.30;;;;;;;-5.17;77.03;98234.40;110206;1247;68631;-68
2022/01/26 09:37:16;;;;;;;83.70;39.50;;;;;;;-5.20;77.30;98232.36;110521;1247;67943;-67
2022/01/26 09:39:47;;;;;;;96.70;43.90;;;;;;;-5.16;77.23;98228.62;110352;1247;59679;-66
2022/01/26 09:42:17;;;;;;;74.80;36.10;;;;;;;-5.12;76.91;98229.49;110377;1247;59688;-66
2022/01/26 09:44:46;;;;;;;62.40;31.30;;;;;;;-5.17;77.17;98223.38;110087;1247;72115;-66
2022/01/26 09:47:15;;;;;;;66.00;30.20;;;;;;;-5.10;77.45;98222.02;110215;1247;67814;-66
2022/01/26 09:49:45;;;;;;;65.10;32.30;;;;;;;-4.99;77.07;98217.27;110198;1247;69205;-66
2022/01/26 09:52:20;;;;;;;94.60;45.50;;;;;;;-4.89;76.96;98212.36;110211;1247;59814;-66
2022/01/26 09:54:49;;;;;;;81.20;36.70;;;;;;;-4.80;77.19;98211.70;110198;1247;59748;-65
2022/01/26 09:57:28;;;;;;;77.00;34.70;;;;;;;-4.72;76.68;98210.86;110176;1247;70703;-66
2022/01/26 09:59:58;;;;;;;68.70;32.00;;;;;;;-4.66;76.32;98203.88;110114;1248;68578;-66
2022/01/26 10:02:30;;;;;;;64.40;32.00;;;;;;;-4.62;76.08;98206.10;110112;1247;69415;-66
2022/01/26 10:05:08;;;;;;;98.50;44.10;;;;;;;-4.61;75.94;98206.95;110175;1246;59734;-65
2022/01/26 10:07:53;;;;;;;71.10;33.60;;;;;;;-4.67;75.74;98209.84;110132;1246;59680;-66
2022/01/26 10:16:09;;;;;;;;;;;;;;;-4.72;76.07;98213.23;110059;1248;69683;-67
2022/01/26 10:18:39;;;;;;;83.60;38.70;;;;;;;-4.76;76.21;98211.20;110088;1247;59731;-66
2022/01/26 10:21:09;;;;;;;72.80;33.20;;;;;;;-4.85;76.55;98207.44;110337;1247;59731;-65
2022/01/26 10:23:40;;;;;;;81.20;40.40;;;;;;;-4.83;76.77;98209.98;110414;1247;72115;-65
2022/01/26 10:26:14;;;;;;;64.60;29.90;;;;;;;-4.75;76.76;98205.40;110382;1247;68631;-66
2022/01/26 10:28:50;;;;;;;57.30;27.50;;;;;;;-4.68;76.35;98204.05;110437;1247;70080;-66
2022/01/26 10:31:28;;;;;;;88.00;39.50;;;;;;;-4.64;76.05;98201.33;110467;1246;59665;-66
2022/01/26 10:34:14;;;;;;;76.30;34.20;;;;;;;-4.67;76.00;98201.84;110318;1246;59677;-66
2022/01/26 10:36:58;;;;;;;;;;;;;;;-4.67;76.64;98200.98;110167;1248;70844;-66
2022/01/26 10:39:45;;;;;;;109.80;45.30;;;;;;;-4.67;76.41;98195.55;110139;1248;69003;-65
2022/01/26 10:42:19;;;;;;;101.40;45.30;;;;;;;-4.66;76.74;98198.27;110233;1247;68804;-65
2022/01/26 10:44:59;;;;;;;66.70;31.30;;;;;;;-4.64;76.58;98200.99;110130;1246;59640;-65
2022/01/26 10:47:35;;;;;;;71.20;33.90;;;;;;;-4.64;76.75;98198.61;110245;1248;59811;-65
2022/01/26 10:53:19;;;;;;;77.40;32.70;;;;;;;-4.56;75.88;98195.89;110407;1247;68590;-65
2022/01/26 10:55:48;;;;;;;51.70;24.20;;;;;;;-4.50;76.20;98192.14;110209;1247;69348;-66
2022/01/26 10:58:17;;;;;;;47.50;21.50;;;;;;;-4.43;75.85;98192.81;110158;1248;59731;-68
2022/01/26 11:00:46;;;;;;;55.70;23.10;;;;;;;-4.33;75.37;98185.32;110362;1247;59690;-65
2022/01/26 11:03:15;;;;;;;44.70;21.60;;;;;;;-4.29;75.25;98187.02;110033;1248;71652;-66
2022/01/26 11:05:45;;;;;;;51.20;23.80;;;;;;;-4.21;75.67;98179.00;110242;1247;66802;-66
2022/01/26 11:08:16;;;;;;;52.40;23.60;;;;;;;-4.10;75.20;98177.27;110231;1247;69584;-68
2022/01/26 11:10:47;;;;;;;58.30;25.80;;;;;;;-4.09;74.58;98178.63;110258;1247;59748;-66
2022/01/26 11:13:48;;;;;;;68.30;32.10;;;;;;;-4.11;74.46;98178.98;110355;1247;59757;-66
2022/01/26 11:16:20;;;;;;;42.10;22.80;;;;;;;-4.17;74.83;98176.43;109640;1253;72115;-66
2022/01/26 11:18:52;;;;;;;58.60;26.60;;;;;;;-4.17;74.64;98172.35;109657;1253;67909;-65
2022/01/26 11:21:34;;;;;;;80.00;32.90;;;;;;;-4.16;74.70;98163.16;109718;1253;70089;-67
2022/01/26 11:24:18;;;;;;;49.20;23.60;;;;;;;-4.15;74.83;98166.06;109623;1253;59681;-68
2022/01/26 11:26:49;;;;;;;57.60;25.00;;;;;;;-4.13;74.80;98165.52;109696;1253;60013;-65
2022/01/26 11:29:32;;;;;;;70.80;31.20;;;;;;;-4.22;74.50;98162.66;109538;1254;71347;-65
2022/01/26 11:32:06;;;;;;;52.80;25.10;;;;;;;-4.35;75.06;98158.77;109693;1253;69212;-65
2022/01/26 11:34:36;;;;;;;51.90;24.70;;;;;;;-4.38;75.35;98157.92;109665;1254;69279;-66
2022/01/26 11:37:14;;;;;;;67.70;26.40;;;;;;;-4.38;75.33;98155.70;109452;1255;59775;-66
2022/01/26 11:45:34;;;;;;;62.00;26.00;;;;;;;-4.38;75.55;98153.83;109556;1255;69318;-66
2022/01/26 11:48:07;;;;;;;49.50;23.30;;;;;;;-4.41;75.65;98152.82;109536;1256;69286;-66
2022/01/26 11:50:42;;;;;;;58.30;24.90;;;;;;;-4.39;75.73;98150.42;109538;1255;60202;-65
2022/01/26 11:53:16;;;;;;;56.00;23.30;;;;;;;-4.37;75.69;98151.63;110084;1246;59674;-66
2022/01/26 11:55:49;;;;;;;76.40;33.10;;;;;;;-4.32;75.63;98149.57;110249;1247;72088;-66
2022/01/26 11:58:28;;;;;;;59.30;24.30;;;;;;;-4.31;75.55;98152.80;110144;1248;68014;-67
2022/01/26 12:01:30;;;;;;;50.30;21.60;;;;;;;-4.33;75.63;98154.52;110045;1247;68443;-68
2022/01/26 12:04:12;;;;;;;50.90;21.10;;;;;;;-4.35;75.67;98149.06;110181;1248;59678;-66
2022/01/26 12:06:42;;;;;;;48.30;22.20;;;;;;;-4.32;75.85;98149.91;110220;1248;59674;-66
2022/01/26 12:09:10;;;;;;;48.70;20.90;;;;;;;-4.28;75.98;98152.64;110252;1247;71965;-66
2022/01/26 12:11:40;;;;;;;56.10;23.50;;;;;;;-4.25;75.60;98153.48;110103;1249;68587;-68
2022/01/26 12:14:12;;;;;;;45.40;19.70;;;;;;;-4.24;75.42;98155.52;110236;1248;69558;-67
2022/01/26 12:16:46;;;;;;;57.30;24.10;;;;;;;-4.23;75.47;98153.64;110187;1245;59701;-66
2022/01/26 12:32:09;;;;;;;48.40;19.60;;;;;;;-4.27;75.62;98151.95;110205;1247;69114;-65
2022/01/26 12:37:32;;;;;;;74.90;31.80;;;;;;;-4.24;75.54;98140.19;110224;1247;71504;-66
2022/01/26 12:42:25;;;;;;;69.80;30.80;;;;;;;-4.39;76.08;98140.39;110038;1248;69654;-66
2022/01/26 12:45:01;;;;;;;47.60;18.30;;;;;;;-4.41;75.94;98140.91;110269;1247;59726;-66
2022/01/26 12:47:31;;;;;;;82.50;33.80;;;;;;;-4.44;76.38;98142.62;110198;1247;59717;-66
2022/01/26 12:50:01;;;;;;;56.80;23.90;;;;;;;-4.49;76.46;98139.90;110030;1248;72172;-66
2022/01/26 12:52:30;;;;;;;68.80;26.30;;;;;;;-4.51;76.74;98134.80;110128;1247;68391;-67
2022/01/26 12:54:59;;;;;;;75.10;30.40;;;;;;;-4.53;76.79;98136.50;110254;1248;69940;-67
2022/01/26 12:57:28;;;;;;;52.20;25.90;;;;;;;-4.64;76.90;98135.67;110193;1248;59745;-65
2022/01/26 13:00:10;;;;;;;39.50;18.90;;;;;;;-4.63;77.09;98132.77;110110;1248;59665;-66
2022/01/26 13:02:40;;;;;;;60.50;27.80;;;;;;;-4.55;77.10;98134.80;109942;1248;71354;-66
2022/01/26 13:05:10;;;;;;;77.00;32.50;;;;;;;-4.49;76.96;98134.97;110191;1247;68581;-66
2022/01/26 13:07:39;;;;;;;61.90;24.80;;;;;;;-4.45;76.92;98134.10;110069;1247;69479;-66
2022/01/26 13:10:18;;;;;;;61.30;27.50;;;;;;;-4.45;76.75;98132.06;110023;1248;59744;-65
2022/01/26 13:12:46;;;;;;;45.40;22.60;;;;;;;-4.44;76.83;98133.92;110101;1247;59701;-65
2022/01/26 13:15:23;;;;;;;36.90;18.60;;;;;;;-4.42;76.73;98135.30;110092;1247;72473;-67
2022/01/26 13:18:04;;;;;;;47.10;21.90;;;;;;;-4.39;76.49;98132.90;110226;1248;68646;-66
2022/01/26 13:21:38;;;;;;;50.00;22.60;;;;;;;-4.38;76.41;98134.61;109984;1249;68745;-66
2022/01/26 13:23:38;;;;;;;46.40;20.30;;;;;;;-4.42;76.75;98127.14;110200;1247;59739;-68
2022/01/26 13:28:57;;;;;;;62.60;26.20;;;;;;;-4.39;76.49;98129.34;110120;1248;72143;-67
2022/01/26 13:46:11;;;;;;;35.60;16.40;;;;;;;-4.31;76.30;98128.29;110146;1246;69013;-66
2022/01/26 13:51:33;;;;;;;53.90;23.00;;;;;;;-4.27;76.16;98132.37;110176;1247;59673;-66
2022/01/26 13:54:41;;;;;;;49.60;23.90;;;;;;;-4.26;76.11;98134.25;110414;1247;59640;-67
2022/01/26 13:59:53;;;;;;;55.90;25.60;;;;;;;-4.25;76.12;98134.92;110111;1247;68046;-65
2022/01/26 14:02:25;;;;;;;48.40;21.50;;;;;;;-4.26;75.59;98136.63;110285;1247;69244;-66